createdAt,value
2023-03-30T00:00:33.008Z,87.90
2023-03-30T00:01:33.030Z,87.24
2023-03-30T00:02:33.029Z,87.14
2023-03-30T00:03:33.285Z,86.53
2023-03-30T00:04:33.033Z,86.08
2023-03-30T00:05:32.980Z,86.32
2023-03-30T00:06:32.998Z,86.18
2023-03-30T00:07:32.956Z,86.29
2023-03-30T00:08:32.944Z,85.47
2023-03-30T00:09:32.934Z,85.47
2023-03-30T00:10:32.960Z,85.36
2023-03-30T00:11:32.953Z,85.16
2023-03-30T00:12:32.971Z,84.85
2023-03-30T00:13:32.926Z,85.06
2023-03-30T00:14:32.900Z,85.47
2023-03-30T00:15:32.957Z,85.36
2023-03-30T00:16:33.050Z,86.29
2023-03-30T00:17:33.027Z,86.08
2023-03-30T00:18:32.873Z,85.97
2023-03-30T00:19:32.858Z,86.12
2023-03-30T00:20:32.900Z,86.32
2023-03-30T00:21:33.870Z,86.22
2023-03-30T00:22:32.840Z,86.73
2023-03-30T00:23:32.832Z,86.73
2023-03-30T00:24:32.856Z,86.83
2023-03-30T00:25:32.917Z,86.94
2023-03-30T00:26:32.841Z,86.94
2023-03-30T00:27:32.810Z,87.29
2023-03-30T00:28:32.837Z,87.24
2023-03-30T00:29:32.827Z,86.83
2023-03-30T00:30:32.786Z,86.73
2023-03-30T00:31:32.830Z,86.83
2023-03-30T00:32:32.778Z,86.98
2023-03-30T00:33:44.588Z,87.14
2023-03-30T00:34:34.755Z,86.98
2023-03-30T00:35:32.769Z,86.83
2023-03-30T00:36:32.773Z,86.98
2023-03-30T00:37:32.738Z,86.73
2023-03-30T00:38:32.742Z,86.73
2023-03-30T00:39:32.713Z,86.67
2023-03-30T00:40:32.726Z,86.57
2023-03-30T00:41:32.759Z,86.63
2023-03-30T00:42:32.694Z,86.43
2023-03-30T00:43:32.693Z,86.43
2023-03-30T00:44:32.718Z,86.22
2023-03-30T00:45:32.682Z,86.32
2023-03-30T00:46:32.851Z,86.22
2023-03-30T00:47:32.657Z,86.22
2023-03-30T00:48:32.643Z,86.02
2023-03-30T00:49:33.673Z,86.02
2023-03-30T00:50:32.634Z,86.16
2023-03-30T00:51:32.653Z,86.12
2023-03-30T00:52:32.610Z,86.22
2023-03-30T00:53:32.633Z,86.12
2023-03-30T00:54:32.604Z,86.22
2023-03-30T00:55:32.594Z,86.22
2023-03-30T00:56:32.613Z,86.22
2023-03-30T00:57:32.584Z,86.43
2023-03-30T00:58:32.577Z,86.53
2023-03-30T00:59:32.562Z,86.02
2023-03-30T01:00:32.556Z,86.22
2023-03-30T01:01:32.591Z,86.26
2023-03-30T01:02:32.764Z,86.26
2023-03-30T01:03:32.695Z,86.16
2023-03-30T01:04:32.549Z,86.26
2023-03-30T01:05:32.521Z,86.26
2023-03-30T01:06:32.566Z,86.43
2023-03-30T01:07:32.511Z,86.26
2023-03-30T01:08:32.600Z,86.12
2023-03-30T01:09:32.515Z,86.05
2023-03-30T01:10:32.488Z,86.26
2023-03-30T01:11:32.504Z,86.36
2023-03-30T01:12:32.473Z,86.46
2023-03-30T01:13:32.460Z,86.26
2023-03-30T01:14:32.459Z,86.57
2023-03-30T01:15:32.481Z,86.26
2023-03-30T01:16:32.489Z,86.57
2023-03-30T01:17:32.462Z,86.16
2023-03-30T01:18:32.423Z,86.05
2023-03-30T01:19:32.419Z,86.16
2023-03-30T01:20:32.420Z,86.40
2023-03-30T01:21:32.440Z,86.16
2023-03-30T01:22:32.398Z,86.57
2023-03-30T01:23:32.383Z,86.36
2023-03-30T01:24:32.377Z,86.20
2023-03-30T01:25:32.365Z,86.20
2023-03-30T01:26:32.396Z,85.48
2023-03-30T01:27:32.354Z,85.34
2023-03-30T01:28:32.358Z,85.14
2023-03-30T01:29:32.353Z,85.55
2023-03-30T01:30:32.337Z,84.93
2023-03-30T01:31:32.351Z,85.14
2023-03-30T01:32:32.375Z,84.83
2023-03-30T01:33:32.339Z,84.52
2023-03-30T01:34:32.323Z,84.52
2023-03-30T01:35:32.488Z,84.48
2023-03-30T01:36:32.325Z,84.42
2023-03-30T01:37:32.351Z,84.42
2023-03-30T01:38:32.278Z,84.38
2023-03-30T01:39:32.277Z,84.31
2023-03-30T01:40:32.258Z,84.28
2023-03-30T01:41:32.251Z,84.28
2023-03-30T01:42:32.269Z,84.52
2023-03-30T01:43:32.240Z,84.42
2023-03-30T01:44:32.225Z,84.31
2023-03-30T01:45:32.216Z,84.42
2023-03-30T01:46:32.234Z,84.63
2023-03-30T01:47:32.244Z,84.72
2023-03-30T01:48:32.195Z,84.63
2023-03-30T01:49:32.212Z,84.11
2023-03-30T01:50:32.204Z,83.60
2023-03-30T01:51:32.227Z,83.39
2023-03-30T01:52:32.192Z,83.81
2023-03-30T01:53:32.166Z,83.81
2023-03-30T01:54:32.158Z,84.31
2023-03-30T01:55:32.145Z,84.42
2023-03-30T01:56:32.142Z,84.52
2023-03-30T01:57:32.157Z,84.63
2023-03-30T01:58:32.123Z,84.31
2023-03-30T01:59:32.119Z,83.81
2023-03-30T02:00:32.125Z,83.81
2023-03-30T02:01:32.128Z,84.22
2023-03-30T02:02:32.185Z,84.22
2023-03-30T02:03:32.160Z,84.31
2023-03-30T02:04:32.089Z,84.22
2023-03-30T02:05:32.079Z,83.91
2023-03-30T02:06:32.067Z,84.42
2023-03-30T02:07:32.151Z,84.01
2023-03-30T02:08:32.069Z,83.64
2023-03-30T02:09:32.054Z,84.05
2023-03-30T02:10:32.043Z,84.52
2023-03-30T02:11:32.043Z,84.36
2023-03-30T02:12:32.056Z,83.64
2023-03-30T02:13:32.015Z,84.15
2023-03-30T02:14:32.031Z,84.46
2023-03-30T02:15:32.002Z,84.05
2023-03-30T02:16:32.014Z,83.29
2023-03-30T02:17:32.076Z,84.15
2023-03-30T02:18:31.983Z,83.60
2023-03-30T02:19:31.975Z,83.29
2023-03-30T02:20:31.967Z,83.09
2023-03-30T02:21:31.988Z,82.89
2023-03-30T02:22:31.974Z,82.89
2023-03-30T02:23:31.946Z,82.98
2023-03-30T02:24:31.925Z,82.68
2023-03-30T02:25:31.924Z,82.68
2023-03-30T02:26:31.916Z,82.48
2023-03-30T02:27:31.933Z,82.57
2023-03-30T02:28:31.903Z,82.37
2023-03-30T02:29:31.888Z,82.57
2023-03-30T02:30:31.880Z,82.68
2023-03-30T02:31:31.908Z,82.57
2023-03-30T02:32:31.974Z,82.48
2023-03-30T02:33:31.858Z,82.37
2023-03-30T02:34:31.860Z,82.57
2023-03-30T02:35:31.899Z,82.27
2023-03-30T02:36:31.839Z,82.57
2023-03-30T02:37:31.851Z,82.68
2023-03-30T02:38:31.829Z,82.27
2023-03-30T02:39:31.824Z,82.17
2023-03-30T02:40:31.808Z,81.96
2023-03-30T02:41:31.794Z,82.07
2023-03-30T02:42:31.839Z,82.17
2023-03-30T02:43:31.810Z,81.93
2023-03-30T02:44:31.783Z,81.82
2023-03-30T02:45:31.783Z,81.72
2023-03-30T02:46:31.769Z,81.51
2023-03-30T02:47:31.814Z,81.62
2023-03-30T02:48:31.744Z,81.62
2023-03-30T02:49:31.743Z,81.41
2023-03-30T02:50:31.752Z,82.03
2023-03-30T02:51:31.729Z,81.82
2023-03-30T02:52:31.717Z,81.93
2023-03-30T02:53:31.741Z,82.48
2023-03-30T02:54:31.724Z,82.37
2023-03-30T02:55:31.728Z,82.57
2023-03-30T02:56:31.687Z,82.37
2023-03-30T02:57:31.717Z,82.27
2023-03-30T02:58:31.699Z,82.23
2023-03-30T02:59:31.663Z,82.13
2023-03-30T03:00:31.658Z,82.27
2023-03-30T03:01:31.700Z,82.07
2023-03-30T03:02:31.710Z,82.03
2023-03-30T03:03:31.767Z,81.72
2023-03-30T03:04:31.639Z,81.82
2023-03-30T03:05:31.620Z,81.21
2023-03-30T03:06:31.617Z,81.01
2023-03-30T03:07:31.608Z,81.01
2023-03-30T03:08:31.621Z,80.90
2023-03-30T03:09:31.588Z,80.90
2023-03-30T03:10:31.580Z,80.90
2023-03-30T03:11:31.638Z,80.90
2023-03-30T03:12:31.572Z,80.80
2023-03-30T03:13:31.588Z,80.90
2023-03-30T03:14:31.609Z,80.90
2023-03-30T03:15:31.551Z,80.90
2023-03-30T03:16:31.574Z,80.90
2023-03-30T03:17:31.567Z,81.01
2023-03-30T03:18:31.785Z,81.10
2023-03-30T03:19:31.531Z,81.01
2023-03-30T03:20:31.508Z,81.10
2023-03-30T03:21:31.507Z,81.62
2023-03-30T03:22:31.536Z,82.23
2023-03-30T03:23:32.116Z,82.95
2023-03-30T03:24:31.480Z,83.46
2023-03-30T03:25:31.479Z,83.76
2023-03-30T03:26:31.468Z,84.17
2023-03-30T03:27:31.456Z,84.11
2023-03-30T03:28:31.476Z,84.17
2023-03-30T03:29:31.485Z,84.42
2023-03-30T03:30:31.439Z,85.10
2023-03-30T03:31:31.485Z,85.34
2023-03-30T03:32:31.449Z,85.85
2023-03-30T03:33:31.439Z,86.26
2023-03-30T03:34:31.449Z,86.26
2023-03-30T03:35:31.517Z,86.30
2023-03-30T03:36:31.380Z,86.40
2023-03-30T03:37:31.381Z,86.30
2023-03-30T03:38:31.369Z,87.02
2023-03-30T03:39:31.391Z,87.22
2023-03-30T03:40:31.360Z,87.73
2023-03-30T03:41:31.351Z,88.04
2023-03-30T03:42:31.401Z,88.45
2023-03-30T03:43:31.353Z,89.06
2023-03-30T03:44:31.365Z,89.27
2023-03-30T03:45:31.321Z,89.47
2023-03-30T03:46:31.368Z,89.98
2023-03-30T03:47:31.340Z,90.03
2023-03-30T03:48:31.288Z,89.72
2023-03-30T03:49:31.310Z,89.92
2023-03-30T03:50:31.283Z,90.13
2023-03-30T03:51:31.277Z,90.23
2023-03-30T03:52:31.267Z,90.44
2023-03-30T03:53:31.254Z,90.44
2023-03-30T03:54:31.276Z,90.23
2023-03-30T03:55:31.243Z,90.44
2023-03-30T03:56:31.246Z,90.60
2023-03-30T03:57:31.266Z,90.03
2023-03-30T03:58:31.247Z,90.03
2023-03-30T03:59:31.246Z,90.34
2023-03-30T04:00:31.217Z,90.44
2023-03-30T04:01:31.208Z,90.54
2023-03-30T04:02:31.288Z,90.54
2023-03-30T04:03:31.200Z,90.54
2023-03-30T04:04:31.220Z,90.44
2023-03-30T04:05:31.171Z,90.30
2023-03-30T04:06:31.165Z,90.44
2023-03-30T04:07:31.160Z,90.75
2023-03-30T04:08:31.154Z,90.95
2023-03-30T04:09:31.160Z,90.95
2023-03-30T04:10:31.121Z,90.84
2023-03-30T04:11:31.181Z,90.75
2023-03-30T04:12:31.108Z,90.54
2023-03-30T04:13:31.120Z,90.75
2023-03-30T04:14:31.119Z,90.75
2023-03-30T04:15:31.081Z,90.54
2023-03-30T04:16:31.141Z,90.44
2023-03-30T04:17:31.074Z,90.84
2023-03-30T04:18:31.059Z,91.05
2023-03-30T04:19:31.083Z,90.64
2023-03-30T04:20:31.049Z,90.84
2023-03-30T04:21:31.041Z,91.16
2023-03-30T04:22:31.050Z,90.95
2023-03-30T04:23:31.021Z,91.26
2023-03-30T04:24:31.050Z,91.87
2023-03-30T04:25:31.018Z,92.38
2023-03-30T04:26:31.013Z,92.28
2023-03-30T04:27:30.986Z,91.97
2023-03-30T04:28:30.991Z,92.69
2023-03-30T04:29:31.010Z,92.28
2023-03-30T04:30:30.975Z,92.18
2023-03-30T04:31:31.004Z,91.93
2023-03-30T04:32:31.016Z,92.49
2023-03-30T04:33:30.974Z,92.34
2023-03-30T04:34:31.131Z,92.55
2023-03-30T04:35:31.052Z,92.44
2023-03-30T04:36:30.924Z,92.85
2023-03-30T04:37:30.928Z,93.00
2023-03-30T04:38:30.920Z,93.67
2023-03-30T04:39:30.917Z,93.92
2023-03-30T04:40:30.922Z,93.92
2023-03-30T04:41:30.897Z,93.82
2023-03-30T04:42:30.883Z,93.92
2023-03-30T04:43:30.887Z,93.71
2023-03-30T04:44:30.867Z,93.98
2023-03-30T04:45:30.946Z,94.08
2023-03-30T04:46:30.854Z,93.98
2023-03-30T04:47:30.881Z,93.88
2023-03-30T04:48:30.847Z,93.57
2023-03-30T04:49:30.828Z,93.57
2023-03-30T04:50:30.848Z,93.47
2023-03-30T04:51:30.810Z,93.98
2023-03-30T04:52:30.812Z,93.98
2023-03-30T04:53:30.799Z,93.88
2023-03-30T04:54:33.163Z,94.29
2023-03-30T04:55:31.813Z,94.29
2023-03-30T04:56:30.780Z,94.12
2023-03-30T04:57:30.807Z,94.84
2023-03-30T04:58:30.764Z,95.51
2023-03-30T04:59:30.757Z,95.51
2023-03-30T05:00:30.765Z,95.62
2023-03-30T05:01:30.790Z,95.26
2023-03-30T05:02:30.845Z,95.57
2023-03-30T05:03:30.796Z,94.75
2023-03-30T05:04:30.713Z,94.65
2023-03-30T05:05:30.735Z,94.55
2023-03-30T05:06:30.699Z,94.65
2023-03-30T05:07:30.696Z,95.26
2023-03-30T05:08:30.732Z,95.32
2023-03-30T05:09:30.714Z,95.43
2023-03-30T05:10:30.699Z,95.43
2023-03-30T05:11:30.667Z,95.12
2023-03-30T05:12:30.661Z,94.71
2023-03-30T05:13:30.644Z,95.32
2023-03-30T05:14:30.646Z,95.32
2023-03-30T05:15:30.661Z,95.53
2023-03-30T05:16:30.693Z,94.92
2023-03-30T05:17:30.643Z,95.43
2023-03-30T05:18:30.615Z,95.73
2023-03-30T05:19:30.600Z,95.32
2023-03-30T05:20:30.622Z,95.26
2023-03-30T05:21:30.579Z,95.67
2023-03-30T05:22:31.570Z,95.53
2023-03-30T05:23:30.565Z,95.63
2023-03-30T05:24:30.605Z,95.73
2023-03-30T05:25:30.576Z,96.04
2023-03-30T05:26:30.569Z,95.43
2023-03-30T05:27:30.547Z,95.32
2023-03-30T05:28:32.399Z,94.71
2023-03-30T05:29:31.549Z,94.30
2023-03-30T05:30:30.539Z,95.26
2023-03-30T05:31:30.528Z,95.37
2023-03-30T05:32:30.580Z,95.21
2023-03-30T05:33:30.500Z,95.10
2023-03-30T05:34:30.507Z,95.21
2023-03-30T05:35:30.510Z,95.62
2023-03-30T05:36:30.476Z,95.87
2023-03-30T05:37:30.477Z,96.03
2023-03-30T05:38:30.462Z,96.13
2023-03-30T05:39:30.527Z,95.92
2023-03-30T05:40:30.517Z,96.07
2023-03-30T05:41:30.447Z,95.82
2023-03-30T05:42:30.419Z,95.92
2023-03-30T05:43:30.417Z,96.13
2023-03-30T05:44:31.408Z,96.19
2023-03-30T05:45:30.464Z,96.59
2023-03-30T05:46:30.453Z,96.86
2023-03-30T05:47:30.435Z,97.16
2023-03-30T05:48:30.379Z,96.75
2023-03-30T05:49:30.375Z,96.81
2023-03-30T05:50:30.392Z,96.92
2023-03-30T05:51:30.360Z,97.12
2023-03-30T05:52:30.343Z,96.77
2023-03-30T05:53:30.399Z,96.87
2023-03-30T05:54:30.329Z,96.77
2023-03-30T05:55:30.363Z,96.87
2023-03-30T05:56:30.324Z,96.56
2023-03-30T05:57:30.401Z,96.46
2023-03-30T05:58:30.304Z,96.31
2023-03-30T05:59:30.295Z,96.11
2023-03-30T06:00:30.320Z,95.80
2023-03-30T06:01:30.280Z,95.90
2023-03-30T06:02:30.333Z,95.80
2023-03-30T06:03:30.380Z,95.80
2023-03-30T06:04:30.293Z,95.60
2023-03-30T06:05:30.291Z,95.70
2023-03-30T06:06:30.243Z,95.04
2023-03-30T06:07:30.259Z,95.35
2023-03-30T06:08:30.225Z,95.15
2023-03-30T06:09:30.232Z,95.65
2023-03-30T06:10:30.251Z,95.45
2023-03-30T06:11:30.211Z,95.50
2023-03-30T06:12:30.206Z,95.65
2023-03-30T06:13:30.193Z,95.15
2023-03-30T06:14:30.189Z,95.39
2023-03-30T06:15:30.208Z,95.25
2023-03-30T06:16:30.205Z,95.39
2023-03-30T06:17:30.226Z,95.39
2023-03-30T06:18:30.801Z,95.50
2023-03-30T06:19:30.141Z,96.01
2023-03-30T06:20:30.163Z,95.60
2023-03-30T06:21:30.133Z,96.01
2023-03-30T06:22:31.977Z,96.01
2023-03-30T06:23:31.138Z,95.50
2023-03-30T06:24:30.112Z,96.01
2023-03-30T06:25:30.145Z,95.60
2023-03-30T06:26:30.093Z,95.50
2023-03-30T06:27:30.091Z,95.50
2023-03-30T06:28:30.080Z,95.39
2023-03-30T06:29:30.069Z,95.90
2023-03-30T06:30:30.165Z,95.70
2023-03-30T06:31:30.102Z,95.70
2023-03-30T06:32:30.110Z,95.70
2023-03-30T06:33:30.046Z,96.11
2023-03-30T06:34:30.032Z,95.80
2023-03-30T06:35:30.059Z,95.90
2023-03-30T06:36:45.228Z,96.11
2023-03-30T06:37:31.019Z,96.46
2023-03-30T06:38:30.008Z,96.36
2023-03-30T06:39:30.056Z,96.87
2023-03-30T06:40:30.013Z,96.77
2023-03-30T06:41:29.974Z,96.77
2023-03-30T06:42:29.974Z,96.67
2023-03-30T06:43:29.961Z,96.67
2023-03-30T06:44:29.948Z,96.92
2023-03-30T06:45:29.965Z,96.26
2023-03-30T06:46:30.020Z,96.46
2023-03-30T06:47:29.937Z,96.56
2023-03-30T06:48:29.935Z,95.80
2023-03-30T06:49:29.913Z,95.85
2023-03-30T06:50:29.897Z,95.85
2023-03-30T06:51:29.917Z,95.95
2023-03-30T06:52:29.880Z,95.39
2023-03-30T06:53:30.138Z,95.50
2023-03-30T06:54:29.884Z,95.54
2023-03-30T06:55:29.878Z,95.29
2023-03-30T06:56:29.888Z,95.39
2023-03-30T06:57:29.893Z,95.09
2023-03-30T06:58:29.840Z,95.70
2023-03-30T06:59:31.417Z,95.29
2023-03-30T07:00:29.903Z,95.80
2023-03-30T07:01:29.899Z,94.48
2023-03-30T07:02:29.844Z,95.09
2023-03-30T07:03:29.798Z,94.98
2023-03-30T07:04:29.818Z,94.98
2023-03-30T07:05:29.798Z,94.37
2023-03-30T07:06:29.850Z,94.78
2023-03-30T07:07:29.772Z,94.98
2023-03-30T07:08:29.756Z,94.48
2023-03-30T07:09:29.920Z,94.48
2023-03-30T07:10:29.755Z,94.48
2023-03-30T07:11:29.764Z,94.07
2023-03-30T07:12:29.741Z,94.17
2023-03-30T07:13:29.735Z,94.12
2023-03-30T07:14:29.714Z,94.02
2023-03-30T07:15:29.721Z,93.82
2023-03-30T07:16:29.758Z,94.02
2023-03-30T07:17:29.801Z,93.62
2023-03-30T07:18:29.712Z,93.45
2023-03-30T07:19:29.679Z,93.92
2023-03-30T07:20:30.208Z,94.02
2023-03-30T07:21:29.694Z,93.82
2023-03-30T07:22:29.650Z,93.66
2023-03-30T07:23:29.692Z,93.51
2023-03-30T07:24:29.663Z,93.41
2023-03-30T07:25:29.649Z,93.51
2023-03-30T07:26:29.652Z,93.67
2023-03-30T07:27:29.611Z,93.71
2023-03-30T07:28:29.622Z,93.71
2023-03-30T07:29:29.613Z,93.41
2023-03-30T07:30:29.600Z,93.71
2023-03-30T07:31:29.677Z,92.90
2023-03-30T07:32:29.640Z,92.59
2023-03-30T07:33:29.605Z,92.29
2023-03-30T07:34:29.574Z,92.35
2023-03-30T07:35:29.555Z,92.55
2023-03-30T07:36:29.578Z,92.55
2023-03-30T07:37:29.551Z,92.65
2023-03-30T07:38:29.528Z,92.76
2023-03-30T07:39:32.117Z,92.76
2023-03-30T07:40:29.557Z,92.49
2023-03-30T07:41:29.538Z,92.45
2023-03-30T07:42:29.510Z,92.71
2023-03-30T07:43:29.500Z,92.86
2023-03-30T07:44:29.486Z,92.55
2023-03-30T07:45:29.473Z,92.61
2023-03-30T07:46:29.570Z,92.45
2023-03-30T07:47:29.492Z,92.61
2023-03-30T07:48:29.465Z,92.61
2023-03-30T07:49:29.442Z,92.71
2023-03-30T07:50:29.445Z,92.30
2023-03-30T07:51:29.472Z,92.16
2023-03-30T07:52:29.441Z,92.41
2023-03-30T07:53:29.423Z,92.10
2023-03-30T07:54:29.425Z,92.41
2023-03-30T07:55:29.403Z,92.50
2023-03-30T07:56:29.437Z,93.38
2023-03-30T07:57:29.580Z,92.77
2023-03-30T07:58:29.387Z,92.36
2023-03-30T07:59:29.368Z,92.36
2023-03-30T08:00:29.360Z,92.50
2023-03-30T08:01:29.384Z,92.71
2023-03-30T08:02:29.387Z,93.28
2023-03-30T08:03:29.538Z,93.32
2023-03-30T08:04:29.419Z,93.38
2023-03-30T08:05:29.327Z,92.57
2023-03-30T08:06:29.348Z,93.38
2023-03-30T08:07:29.307Z,93.28
2023-03-30T08:08:29.316Z,92.93
2023-03-30T08:09:29.289Z,93.07
2023-03-30T08:10:29.286Z,93.03
2023-03-30T08:11:29.320Z,93.59
2023-03-30T08:12:29.267Z,93.54
2023-03-30T08:13:29.260Z,93.48
2023-03-30T08:14:29.253Z,93.24
2023-03-30T08:15:29.255Z,93.48
2023-03-30T08:16:29.276Z,93.38
2023-03-30T08:17:29.345Z,93.99
2023-03-30T08:18:29.325Z,93.95
2023-03-30T08:19:29.219Z,93.89
2023-03-30T08:20:29.209Z,93.85
2023-03-30T08:21:29.234Z,93.74
2023-03-30T08:22:29.201Z,93.64
2023-03-30T08:23:29.185Z,93.54
2023-03-30T08:24:29.204Z,92.99
2023-03-30T08:25:29.211Z,93.29
2023-03-30T08:26:29.190Z,93.55
2023-03-30T08:27:29.193Z,92.64
2023-03-30T08:28:29.158Z,92.40
2023-03-30T08:29:29.147Z,92.40
2023-03-30T08:30:29.138Z,92.09
2023-03-30T08:31:29.208Z,91.68
2023-03-30T08:32:29.166Z,91.53
2023-03-30T08:33:29.110Z,91.53
2023-03-30T08:34:29.143Z,92.04
2023-03-30T08:35:29.147Z,91.43
2023-03-30T08:36:29.123Z,91.53
2023-03-30T08:37:29.081Z,89.97
2023-03-30T08:38:29.076Z,90.31
2023-03-30T08:39:29.068Z,90.72
2023-03-30T08:40:29.062Z,90.92
2023-03-30T08:41:29.085Z,90.56
2023-03-30T08:42:29.045Z,90.77
2023-03-30T08:43:29.033Z,91.17
2023-03-30T08:44:29.055Z,91.78
2023-03-30T08:45:29.064Z,91.99
2023-03-30T08:46:29.194Z,91.78
2023-03-30T08:47:29.037Z,91.68
2023-03-30T08:48:29.003Z,91.93
2023-03-30T08:49:28.997Z,92.40
2023-03-30T08:50:28.980Z,91.78
2023-03-30T08:51:29.000Z,91.68
2023-03-30T08:52:28.974Z,91.72
2023-03-30T08:53:28.974Z,91.72
2023-03-30T08:54:29.032Z,92.09
2023-03-30T08:55:28.955Z,91.58
2023-03-30T08:56:29.356Z,91.68
2023-03-30T08:57:28.955Z,91.88
2023-03-30T08:58:28.918Z,91.84
2023-03-30T08:59:28.919Z,91.78
2023-03-30T09:00:28.999Z,91.78
2023-03-30T09:01:29.997Z,91.48
2023-03-30T09:02:28.931Z,91.68
2023-03-30T09:03:28.905Z,91.88
2023-03-30T09:04:28.875Z,91.27
2023-03-30T09:05:28.987Z,90.56
2023-03-30T09:06:28.885Z,90.72
2023-03-30T09:07:28.837Z,90.11
2023-03-30T09:08:28.851Z,90.11
2023-03-30T09:09:28.831Z,90.17
2023-03-30T09:10:28.881Z,89.81
2023-03-30T09:11:28.908Z,89.76
2023-03-30T09:12:28.836Z,89.05
2023-03-30T09:13:28.806Z,89.05
2023-03-30T09:14:28.799Z,89.26
2023-03-30T09:15:30.492Z,89.31
2023-03-30T09:16:28.898Z,88.60
2023-03-30T09:17:28.829Z,88.65
2023-03-30T09:18:28.759Z,88.30
2023-03-30T09:19:28.802Z,88.06
2023-03-30T09:20:28.752Z,88.30
2023-03-30T09:21:28.765Z,87.99
2023-03-30T09:22:28.909Z,87.45
2023-03-30T09:23:28.732Z,87.34
2023-03-30T09:24:28.721Z,87.65
2023-03-30T09:25:28.722Z,87.30
2023-03-30T09:26:28.710Z,87.30
2023-03-30T09:27:28.736Z,86.69
2023-03-30T09:28:28.692Z,87.00
2023-03-30T09:29:28.685Z,87.00
2023-03-30T09:30:28.673Z,86.49
2023-03-30T09:31:28.700Z,86.19
2023-03-30T09:32:28.727Z,86.49
2023-03-30T09:33:28.686Z,86.08
2023-03-30T09:34:28.656Z,85.88
2023-03-30T09:35:28.656Z,86.15
2023-03-30T09:36:28.675Z,85.38
2023-03-30T09:37:28.637Z,85.94
2023-03-30T09:38:29.619Z,85.44
2023-03-30T09:39:29.240Z,85.24
2023-03-30T09:40:28.612Z,85.53
2023-03-30T09:41:28.599Z,85.53
2023-03-30T09:42:28.618Z,85.39
2023-03-30T09:43:28.575Z,83.98
2023-03-30T09:44:28.580Z,84.34
2023-03-30T09:45:29.731Z,82.62
2023-03-30T09:46:28.589Z,83.57
2023-03-30T09:47:28.650Z,83.49
2023-03-30T09:48:28.536Z,83.29
2023-03-30T09:49:28.526Z,82.78
2023-03-30T09:50:28.576Z,82.03
2023-03-30T09:51:30.698Z,81.77
2023-03-30T09:52:29.571Z,82.78
2023-03-30T09:53:28.503Z,82.89
2023-03-30T09:54:28.494Z,83.39
2023-03-30T09:55:28.498Z,82.98
2023-03-30T09:56:28.550Z,83.18
2023-03-30T09:57:28.610Z,82.44
2023-03-30T09:58:28.455Z,81.69
2023-03-30T09:59:28.458Z,82.06
2023-03-30T10:00:28.449Z,80.98
2023-03-30T10:01:28.504Z,80.98
2023-03-30T10:02:28.498Z,81.18
2023-03-30T10:03:28.552Z,81.69
2023-03-30T10:04:28.454Z,80.47
2023-03-30T10:05:28.408Z,80.98
2023-03-30T10:06:28.399Z,80.47
2023-03-30T10:07:28.421Z,80.47
2023-03-30T10:08:28.395Z,81.12
2023-03-30T10:09:28.379Z,80.96
2023-03-30T10:10:28.363Z,82.03
2023-03-30T10:11:28.360Z,82.28
2023-03-30T10:12:28.399Z,82.48
2023-03-30T10:13:28.350Z,82.28
2023-03-30T10:14:29.050Z,81.97
2023-03-30T10:15:31.264Z,82.17
2023-03-30T10:16:28.404Z,82.07
2023-03-30T10:17:28.447Z,82.68
2023-03-30T10:18:28.341Z,82.17
2023-03-30T10:19:28.419Z,82.14
2023-03-30T10:20:28.291Z,81.77
2023-03-30T10:21:29.561Z,82.07
2023-03-30T10:22:28.276Z,82.07
2023-03-30T10:23:28.295Z,82.14
2023-03-30T10:24:29.270Z,81.97
2023-03-30T10:25:28.256Z,81.16
2023-03-30T10:26:28.236Z,81.77
2023-03-30T10:27:29.321Z,81.26
2023-03-30T10:28:28.224Z,81.26
2023-03-30T10:29:28.224Z,81.37
2023-03-30T10:30:28.227Z,81.57
2023-03-30T10:31:28.485Z,81.26
2023-03-30T10:32:28.266Z,80.65
2023-03-30T10:33:28.211Z,80.82
2023-03-30T10:34:28.194Z,80.92
2023-03-30T10:35:28.207Z,80.58
2023-03-30T10:36:28.162Z,80.24
2023-03-30T10:37:28.176Z,80.24
2023-03-30T10:38:28.181Z,79.63
2023-03-30T10:39:28.134Z,79.43
2023-03-30T10:40:28.133Z,78.99
2023-03-30T10:41:28.135Z,78.92
2023-03-30T10:42:28.197Z,79.22
2023-03-30T10:43:28.217Z,79.06
2023-03-30T10:44:28.098Z,79.57
2023-03-30T10:45:28.090Z,79.67
2023-03-30T10:46:28.357Z,79.06
2023-03-30T10:47:28.221Z,79.16
2023-03-30T10:48:28.098Z,79.71
2023-03-30T10:49:28.061Z,79.50
2023-03-30T10:50:28.089Z,79.40
2023-03-30T10:51:28.045Z,79.40
2023-03-30T10:52:28.048Z,79.50
2023-03-30T10:53:28.062Z,80.07
2023-03-30T10:54:28.030Z,79.77
2023-03-30T10:55:28.033Z,79.26
2023-03-30T10:56:28.016Z,78.55
2023-03-30T10:57:28.019Z,78.55
2023-03-30T10:58:28.014Z,78.45
2023-03-30T10:59:28.002Z,78.96
2023-03-30T11:00:27.977Z,78.28
2023-03-30T11:01:28.027Z,78.35
2023-03-30T11:02:28.103Z,78.86
2023-03-30T11:03:28.042Z,77.84
2023-03-30T11:04:28.103Z,77.81
2023-03-30T11:05:30.391Z,77.50
2023-03-30T11:06:27.941Z,77.40
2023-03-30T11:07:28.037Z,77.13
2023-03-30T11:08:27.951Z,76.22
2023-03-30T11:09:28.066Z,75.92
2023-03-30T11:10:28.898Z,76.02
2023-03-30T11:11:27.917Z,75.98
2023-03-30T11:12:27.887Z,75.95
2023-03-30T11:13:27.906Z,75.47
2023-03-30T11:14:27.890Z,74.87
2023-03-30T11:15:27.903Z,74.96
2023-03-30T11:16:27.881Z,73.96
2023-03-30T11:17:27.934Z,73.85
2023-03-30T11:18:27.870Z,74.09
2023-03-30T11:19:27.828Z,73.62
2023-03-30T11:20:27.870Z,73.86
2023-03-30T11:21:27.819Z,74.97
2023-03-30T11:22:27.806Z,75.24
2023-03-30T11:23:27.847Z,75.04
2023-03-30T11:24:27.913Z,75.48
2023-03-30T11:25:27.794Z,75.57
2023-03-30T11:26:27.776Z,75.17
2023-03-30T11:27:27.827Z,75.34
2023-03-30T11:28:27.841Z,75.34
2023-03-30T11:29:27.766Z,74.16
2023-03-30T11:30:27.750Z,74.16
2023-03-30T11:31:27.751Z,75.17
2023-03-30T11:32:27.752Z,75.44
2023-03-30T11:33:27.749Z,74.53
2023-03-30T11:34:27.715Z,74.33
2023-03-30T11:35:27.727Z,72.71
2023-03-30T11:36:27.716Z,73.86
2023-03-30T11:37:27.726Z,73.86
2023-03-30T11:38:27.712Z,74.37
2023-03-30T11:39:32.303Z,75.17
2023-03-30T11:40:29.676Z,74.26
2023-03-30T11:41:27.665Z,75.07
2023-03-30T11:42:27.656Z,73.72
2023-03-30T11:43:27.682Z,72.81
2023-03-30T11:44:27.660Z,72.81
2023-03-30T11:45:27.630Z,73.32
2023-03-30T11:46:27.706Z,73.52
2023-03-30T11:47:27.707Z,73.72
2023-03-30T11:48:27.643Z,73.86
2023-03-30T11:49:27.601Z,74.37
2023-03-30T11:50:27.601Z,72.75
2023-03-30T11:51:27.594Z,72.95
2023-03-30T11:52:27.583Z,72.99
2023-03-30T11:53:27.589Z,73.25
2023-03-30T11:54:28.594Z,73.05
2023-03-30T11:55:27.563Z,73.35
2023-03-30T11:56:27.552Z,73.49
2023-03-30T11:57:27.592Z,74.26
2023-03-30T11:58:27.540Z,75.10
2023-03-30T11:59:27.555Z,74.13
2023-03-30T12:00:27.528Z,70.89
2023-03-30T12:01:27.528Z,72.55
2023-03-30T12:02:27.639Z,76.75
2023-03-30T12:03:27.662Z,81.48
2023-03-30T12:04:27.535Z,83.39
2023-03-30T12:05:27.520Z,84.74
2023-03-30T12:06:27.468Z,87.02
2023-03-30T12:07:27.491Z,87.67
2023-03-30T12:08:27.452Z,88.70
2023-03-30T12:09:27.527Z,89.76
2023-03-30T12:10:28.453Z,89.65
2023-03-30T12:11:27.428Z,90.64
2023-03-30T12:12:27.423Z,89.86
2023-03-30T12:13:28.385Z,90.37
2023-03-30T12:14:27.437Z,89.82
2023-03-30T12:15:27.401Z,89.97
2023-03-30T12:16:28.383Z,90.78
2023-03-30T12:17:28.440Z,90.37
2023-03-30T12:18:27.403Z,90.82
2023-03-30T12:19:27.401Z,90.99
2023-03-30T12:20:27.367Z,91.03
2023-03-30T12:21:27.350Z,91.39
2023-03-30T12:22:28.350Z,91.19
2023-03-30T12:23:27.345Z,92.36
2023-03-30T12:24:27.362Z,92.46
2023-03-30T12:25:27.321Z,92.15
2023-03-30T12:26:27.341Z,91.74
2023-03-30T12:27:27.373Z,92.30
2023-03-30T12:28:35.791Z,91.95
2023-03-30T12:30:28.298Z,92.46
2023-03-30T12:31:27.311Z,91.44
2023-03-30T12:32:29.044Z,92.21
2023-03-30T12:33:28.267Z,90.21
2023-03-30T12:34:27.304Z,90.11
2023-03-30T12:35:27.271Z,89.86
2023-03-30T12:36:27.246Z,90.47
2023-03-30T12:37:27.239Z,90.82
2023-03-30T12:38:27.275Z,90.72
2023-03-30T12:39:27.243Z,90.62
2023-03-30T12:40:27.234Z,90.21
2023-03-30T12:41:27.220Z,89.76
2023-03-30T12:42:27.236Z,89.70
2023-03-30T12:43:27.189Z,89.97
2023-03-30T12:44:27.209Z,89.97
2023-03-30T12:45:27.249Z,88.64
2023-03-30T12:46:27.223Z,88.74
2023-03-30T12:47:27.262Z,87.67
2023-03-30T12:48:27.150Z,87.57
2023-03-30T12:49:27.213Z,88.39
2023-03-30T12:50:27.129Z,88.70
2023-03-30T12:51:27.123Z,87.26
2023-03-30T12:52:27.124Z,87.12
2023-03-30T12:53:27.114Z,87.02